Time;durP1;ratioP1;P1;durP2;ratioP2;P2;SDS_P1;SDS_P2;PMS_P1;PMS_P2;Temp;Humidity;BMP_temperature;BMP_pressure;BME280_temperature;BME280_humidity;BME280_pressure;Samples;Min_cycle;Max_cycle;Signal;HPM_P1;HPM_P2
2021/01/17 00:00:48;;;;;;;17.63;11.30;;;-0.20;99.90;;;;;;4993961;28;20242;-81
2021/01/17 00:03:14;;;;;;;18.57;10.93;;;-0.20;99.90;;;;;;4980281;28;20190;-80
2021/01/17 00:05:39;;;;;;;20.80;11.50;;;-0.40;99.90;;;;;;4994521;28;20262;-81
2021/01/17 00:08:12;;;;;;;19.43;11.37;;;-0.30;99.90;;;;;;4994831;28;20262;-81
2021/01/17 00:10:37;;;;;;;19.57;12.07;;;-0.30;99.90;;;;;;4977121;28;20662;-81
2021/01/17 00:13:03;;;;;;;18.23;11.30;;;-0.30;99.90;;;;;;4977033;28;20188;-81
2021/01/17 00:15:29;;;;;;;16.90;11.23;;;-0.20;99.90;;;;;;4976206;28;20287;-80
2021/01/17 00:17:54;;;;;;;19.70;11.67;;;-0.30;99.90;;;;;;4992403;28;20272;-82
2021/01/17 00:20:21;;;;;;;18.47;10.90;;;-0.20;99.90;;;;;;4993806;28;20216;-81
2021/01/17 00:22:46;;;;;;;16.90;10.87;;;-0.30;99.90;;;;;;4973793;28;20183;-83
2021/01/17 00:25:13;;;;;;;18.17;11.47;;;-0.20;99.90;;;;;;4969691;28;20187;-81
2021/01/17 00:27:39;;;;;;;19.47;11.40;;;-0.20;99.90;;;;;;4972474;28;20198;-83
2021/01/17 00:30:06;;;;;;;17.07;11.13;;;-0.30;99.90;;;;;;4971120;28;20218;-81
2021/01/17 00:32:32;;;;;;;15.77;9.63;;;-0.20;99.90;;;;;;4972262;28;20258;-80
2021/01/17 00:34:57;;;;;;;20.03;11.03;;;-0.30;99.90;;;;;;4970602;28;20564;-81
2021/01/17 00:37:23;;;;;;;19.60;11.73;;;-0.20;99.90;;;;;;4987406;28;20207;-82
2021/01/17 00:39:48;;;;;;;18.97;11.00;;;-0.40;99.90;;;;;;4972482;28;20222;-81
2021/01/17 00:49:50;;;;;;;18.63;11.63;;;-0.30;99.90;;;;;;4989417;28;20287;-79
2021/01/17 00:55:56;;;;;;;18.47;11.30;;;-0.40;99.90;;;;;;4990244;28;20248;-81
2021/01/17 00:58:21;;;;;;;21.37;12.23;;;-0.50;99.90;;;;;;4975113;28;20312;-81
2021/01/17 01:00:47;;;;;;;20.20;11.70;;;-0.40;99.90;;;;;;4974534;28;20209;-83
2021/01/17 01:03:12;;;;;;;18.27;11.47;;;-0.50;99.90;;;;;;4990597;28;20198;-81
2021/01/17 01:05:38;;;;;;;19.10;11.87;;;-0.50;99.90;;;;;;4991372;28;20180;-81
2021/01/17 01:08:07;;;;;;;19.07;11.37;;;-0.40;99.90;;;;;;4991786;28;20194;-83
2021/01/17 01:10:33;;;;;;;18.47;11.77;;;-0.40;99.90;;;;;;4989517;28;20187;-80
2021/01/17 01:12:58;;;;;;;18.73;11.73;;;-0.40;99.90;;;;;;4973786;28;20259;-83
2021/01/17 01:15:24;;;;;;;20.67;12.00;;;-0.40;99.90;;;;;;4973931;28;20184;-82
2021/01/17 01:17:50;;;;;;;19.90;11.80;;;-0.40;99.90;;;;;;4988841;28;20266;-83
2021/01/17 01:20:15;;;;;;;19.20;11.70;;;-0.30;99.90;;;;;;4973015;28;20231;-81
2021/01/17 01:22:41;;;;;;;18.53;11.57;;;-0.40;99.90;;;;;;4988191;28;20664;-81
2021/01/17 01:25:08;;;;;;;19.67;12.00;;;-0.30;99.90;;;;;;4968282;28;20224;-81
2021/01/17 01:27:34;;;;;;;18.77;11.53;;;-0.30;99.90;;;;;;4966639;28;20184;-83
2021/01/17 01:29:59;;;;;;;18.97;11.93;;;-0.30;99.90;;;;;;4988096;28;20220;-81
2021/01/17 01:32:25;;;;;;;21.27;12.20;;;-0.20;99.90;;;;;;4974098;28;20174;-81
2021/01/17 01:34:50;;;;;;;20.80;12.23;;;-0.30;99.90;;;;;;4974775;28;20183;-82
2021/01/17 01:37:16;;;;;;;20.27;12.93;;;-0.30;99.90;;;;;;4987703;28;20566;-84
2021/01/17 01:39:41;;;;;;;22.70;12.17;;;-0.40;99.90;;;;;;4966149;28;20229;-82
2021/01/17 01:42:07;;;;;;;19.87;12.03;;;-0.40;99.90;;;;;;4969588;28;20551;-82
2021/01/17 01:44:33;;;;;;;18.50;12.43;;;-0.20;99.90;;;;;;4966197;28;20213;-82
2021/01/17 01:46:59;;;;;;;20.20;12.60;;;-0.30;99.90;;;;;;4983429;28;20179;-82
2021/01/17 01:49:24;;;;;;;18.60;11.53;;;-0.30;99.90;;;;;;4966092;28;20212;-83
2021/01/17 01:51:50;;;;;;;21.07;12.33;;;-0.30;99.90;;;;;;4987455;28;20187;-81
2021/01/17 01:54:16;;;;;;;20.73;12.67;;;-0.30;99.90;;;;;;4991194;28;20184;-81
2021/01/17 01:56:41;;;;;;;23.23;13.03;;;-0.30;99.90;;;;;;4969812;28;20179;-83
2021/01/17 01:59:07;;;;;;;19.37;11.97;;;-0.30;99.90;;;;;;4983120;28;20219;-83
2021/01/17 02:01:32;;;;;;;20.37;11.70;;;-0.30;99.90;;;;;;4966129;28;20178;-81
2021/01/17 02:03:58;;;;;;;20.00;12.77;;;-0.20;99.90;;;;;;4965013;28;20191;-81
2021/01/17 02:06:27;;;;;;;21.77;13.27;;;-0.30;99.90;;;;;;4963345;28;20249;-81
2021/01/17 02:08:55;;;;;;;20.33;12.30;;;-0.30;99.90;;;;;;4963843;28;20196;-81
2021/01/17 02:11:40;;;;;;;21.47;12.80;;;-0.30;99.90;;;;;;4982568;28;20190;-82
2021/01/17 02:14:25;;;;;;;19.30;11.90;;;-0.30;99.90;;;;;;4966729;28;20550;-82
2021/01/17 02:16:52;;;;;;;20.40;12.23;;;-0.30;99.90;;;;;;4972979;28;20180;-81
2021/01/17 02:19:17;;;;;;;22.60;13.37;;;-0.30;99.90;;;;;;4971365;28;20307;-81
2021/01/17 02:21:51;;;;;;;23.20;12.93;;;-0.30;99.90;;;;;;4989018;28;20183;-81
2021/01/17 02:24:17;;;;;;;21.33;12.37;;;-0.30;99.90;;;;;;4971533;28;20194;-81
2021/01/17 02:26:42;;;;;;;22.93;12.67;;;-0.20;99.90;;;;;;4989822;28;20174;-81
2021/01/17 02:29:08;;;;;;;22.30;12.43;;;-0.30;99.90;;;;;;4971249;28;20222;-80
2021/01/17 02:31:34;;;;;;;22.63;13.33;;;-0.30;99.90;;;;;;4967544;28;20183;-82
2021/01/17 02:34:00;;;;;;;21.23;12.70;;;-0.30;99.90;;;;;;4967215;28;20184;-81
2021/01/17 02:36:40;;;;;;;24.17;13.60;;;-0.20;99.90;;;;;;4985897;28;20335;-83
2021/01/17 02:39:06;;;;;;;22.27;12.80;;;-0.20;99.90;;;;;;4969762;28;20357;-83
2021/01/17 02:41:58;;;;;;;20.23;12.70;;;-0.20;99.90;;;;;;4986883;28;20184;-82
2021/01/17 02:44:33;;;;;;;24.90;13.67;;;-0.20;99.90;;;;;;4971472;28;20180;-83
2021/01/17 02:46:58;;;;;;;24.87;14.37;;;-0.20;99.90;;;;;;4984903;28;20223;-81
2021/01/17 02:49:24;;;;;;;19.33;12.37;;;-0.20;99.90;;;;;;4986907;28;20204;-82
2021/01/17 02:51:50;;;;;;;19.83;12.50;;;-0.30;99.90;;;;;;4971446;28;20246;-82
2021/01/17 02:54:42;;;;;;;24.23;13.70;;;-0.20;99.90;;;;;;4986178;28;20218;-83
2021/01/17 02:57:09;;;;;;;21.10;13.10;;;-0.20;99.90;;;;;;4988976;28;20180;-84
2021/01/17 02:59:56;;;;;;;23.33;12.87;;;-0.20;99.90;;;;;;4992642;28;20213;-82
2021/01/17 03:02:28;;;;;;;25.07;15.03;;;-0.20;99.90;;;;;;4980019;28;20163;-85
2021/01/17 03:04:58;;;;;;;23.33;14.37;;;-0.20;99.90;;;;;;4995057;28;20174;-82
2021/01/17 03:07:24;;;;;;;24.63;14.80;;;-0.20;99.90;;;;;;4976764;28;20199;-81
2021/01/17 03:09:50;;;;;;;29.77;15.60;;;-0.20;99.90;;;;;;4987844;28;20697;-82
2021/01/17 03:12:15;;;;;;;24.73;14.63;;;-0.20;99.90;;;;;;4978088;28;20185;-82
2021/01/17 03:14:41;;;;;;;24.10;14.23;;;-0.20;99.90;;;;;;4999451;28;20180;-84
2021/01/17 03:17:07;;;;;;;23.93;14.33;;;-0.20;99.90;;;;;;4984520;28;20173;-83
2021/01/17 03:19:33;;;;;;;25.17;14.67;;;-0.10;99.90;;;;;;4983192;28;20213;-81
2021/01/17 03:21:58;;;;;;;24.73;15.07;;;-0.20;99.90;;;;;;4983799;28;20207;-81
2021/01/17 03:24:24;;;;;;;24.10;15.07;;;-0.20;99.90;;;;;;4998002;28;20194;-81
2021/01/17 03:26:50;;;;;;;27.43;15.97;;;-0.20;99.90;;;;;;4983846;28;20828;-83
2021/01/17 03:29:15;;;;;;;29.80;16.43;;;-0.20;99.90;;;;;;4999133;28;20244;-82
2021/01/17 03:31:41;;;;;;;26.47;15.97;;;-0.20;99.90;;;;;;4982906;28;20185;-82
2021/01/17 03:34:06;;;;;;;27.33;15.60;;;-0.20;99.90;;;;;;4996173;28;20212;-82
2021/01/17 03:36:32;;;;;;;29.73;16.40;;;-0.20;99.90;;;;;;4980866;28;20243;-81
2021/01/17 03:38:58;;;;;;;27.83;16.87;;;-0.10;99.90;;;;;;4997011;28;20185;-83
2021/01/17 03:41:24;;;;;;;28.93;16.30;;;-0.20;99.90;;;;;;4981651;28;20200;-81
2021/01/17 03:43:49;;;;;;;31.37;16.23;;;-0.20;99.90;;;;;;4982263;28;20184;-81
2021/01/17 03:46:15;;;;;;;28.73;16.80;;;-0.20;99.90;;;;;;4983122;28;20187;-82
2021/01/17 03:48:40;;;;;;;29.00;17.27;;;-0.20;99.90;;;;;;4975128;28;20203;-80
2021/01/17 03:51:06;;;;;;;29.37;17.53;;;-0.20;99.90;;;;;;4980349;28;20187;-81
2021/01/17 03:53:31;;;;;;;30.37;17.47;;;-0.30;99.90;;;;;;4972761;28;20194;-80
2021/01/17 03:55:57;;;;;;;29.60;17.53;;;-0.30;99.90;;;;;;4970355;28;20217;-83
2021/01/17 03:58:22;;;;;;;29.43;17.83;;;-0.30;99.90;;;;;;4969996;28;20210;-81
2021/01/17 04:00:48;;;;;;;27.87;17.57;;;-0.30;99.90;;;;;;4973434;28;20296;-81
2021/01/17 04:03:14;;;;;;;28.97;17.37;;;-0.30;99.90;;;;;;4967332;28;20188;-82
2021/01/17 04:05:39;;;;;;;29.13;16.80;;;-0.30;99.90;;;;;;4967364;28;20189;-85
2021/01/17 04:08:05;;;;;;;34.37;17.60;;;-0.30;99.90;;;;;;4965113;28;20295;-81
2021/01/17 04:10:30;;;;;;;29.03;17.90;;;-0.30;99.90;;;;;;4966080;28;20184;-82
2021/01/17 04:12:56;;;;;;;32.20;17.77;;;-0.30;99.90;;;;;;4966588;28;20184;-82
2021/01/17 04:15:21;;;;;;;30.77;17.97;;;-0.30;99.90;;;;;;4980920;28;20187;-85
2021/01/17 04:17:47;;;;;;;29.00;16.97;;;-0.20;99.90;;;;;;4964772;28;20198;-81
2021/01/17 04:20:13;;;;;;;31.07;17.53;;;-0.20;99.90;;;;;;4964664;28;20255;-82
2021/01/17 04:22:39;;;;;;;30.17;17.97;;;-0.20;99.90;;;;;;4963402;28;20276;-82
2021/01/17 04:25:05;;;;;;;31.20;17.57;;;-0.20;99.90;;;;;;4979257;28;20223;-81
2021/01/17 04:27:31;;;;;;;29.93;18.07;;;-0.10;99.90;;;;;;4962218;28;20184;-82
2021/01/17 04:30:19;;;;;;;28.63;17.33;;;-0.20;99.90;;;;;;5016520;23;20216;-85
2021/01/17 04:32:45;;;;;;;28.53;15.87;;;-0.30;99.90;;;;;;4955814;29;20219;-84
2021/01/17 04:35:13;;;;;;;27.37;16.50;;;-0.20;99.90;;;;;;4958929;29;20181;-84
2021/01/17 04:37:38;;;;;;;29.77;17.23;;;-0.20;99.90;;;;;;4944683;29;20200;-84
2021/01/17 04:40:05;;;;;;;29.23;16.80;;;-0.20;99.90;;;;;;4943735;29;20196;-84
2021/01/17 04:42:34;;;;;;;28.70;16.33;;;-0.10;99.90;;;;;;4960617;29;20228;-83
2021/01/17 04:45:05;;;;;;;30.23;16.83;;;-0.10;99.90;;;;;;4961136;29;20173;-84
2021/01/17 04:47:31;;;;;;;28.43;16.67;;;-0.10;99.90;;;;;;4960602;29;20159;-83
2021/01/17 04:50:00;;;;;;;26.63;16.33;;;-0.10;99.90;;;;;;4944872;29;20197;-84
2021/01/17 04:52:28;;;;;;;26.33;15.40;;;-0.10;99.90;;;;;;4945259;29;20168;-84
2021/01/17 04:54:54;;;;;;;30.60;17.47;;;-0.20;99.90;;;;;;4944795;29;20242;-83
2021/01/17 04:57:25;;;;;;;32.33;17.80;;;-0.20;99.90;;;;;;4960201;29;20196;-86
2021/01/17 05:00:03;;;;;;;27.67;16.53;;;-0.10;99.90;;;;;;4976204;29;20680;-85
2021/01/17 05:02:32;;;;;;;27.57;17.00;;;-0.10;99.90;;;;;;4945563;29;20611;-83
2021/01/17 05:05:12;;;;;;;27.73;17.37;;;-0.10;99.90;;;;;;4960789;29;20173;-84
2021/01/17 05:07:37;;;;;;;27.90;16.30;;;0.00;99.90;;;;;;4960421;29;20173;-85
2021/01/17 05:10:07;;;;;;;28.33;16.17;;;-0.10;99.90;;;;;;4960608;29;20203;-84
2021/01/17 05:12:37;;;;;;;29.53;17.47;;;-0.10;99.90;;;;;;4959298;29;20203;-84
2021/01/17 05:15:04;;;;;;;28.80;16.57;;;0.00;99.90;;;;;;4975329;29;20194;-85
2021/01/17 05:17:38;;;;;;;30.53;17.60;;;0.00;99.90;;;;;;4943676;28;20184;-84
2021/01/17 05:20:04;;;;;;;31.40;16.87;;;0.00;99.90;;;;;;4958927;29;20216;-85
2021/01/17 05:22:30;;;;;;;31.43;18.00;;;0.00;99.90;;;;;;4943894;28;20173;-83
2021/01/17 05:24:55;;;;;;;30.80;18.40;;;0.00;99.90;;;;;;4959577;29;20198;-85
2021/01/17 05:27:21;;;;;;;29.27;17.03;;;0.00;99.90;;;;;;4959442;29;20650;-83
2021/01/17 05:29:46;;;;;;;33.30;18.50;;;-0.10;99.90;;;;;;4959355;29;20260;-84
2021/01/17 05:32:13;;;;;;;31.60;17.30;;;-0.10;99.90;;;;;;4959418;29;20208;-83
2021/01/17 05:34:38;;;;;;;30.30;17.40;;;0.00;99.90;;;;;;4959236;29;20196;-82
2021/01/17 05:37:09;;;;;;;35.00;17.50;;;0.00;99.90;;;;;;4958609;29;20189;-83
2021/01/17 05:39:53;;;;;;;32.03;17.00;;;0.00;99.90;;;;;;4958107;29;20197;-84
2021/01/17 05:42:26;;;;;;;31.20;17.03;;;0.00;99.90;;;;;;4959015;29;20211;-82
2021/01/17 05:44:54;;;;;;;32.93;18.93;;;-0.10;99.90;;;;;;4959195;29;20206;-84
2021/01/17 05:47:21;;;;;;;32.63;18.03;;;-0.10;99.90;;;;;;4944039;29;20195;-83
2021/01/17 05:49:50;;;;;;;31.13;17.80;;;-0.10;99.90;;;;;;4959704;29;20202;-85
2021/01/17 05:52:17;;;;;;;29.50;17.20;;;0.00;99.90;;;;;;4944013;29;20681;-84
2021/01/17 05:54:46;;;;;;;33.37;18.83;;;0.00;99.90;;;;;;4959747;29;20179;-85
2021/01/17 05:57:25;;;;;;;30.03;17.90;;;0.10;99.90;;;;;;4959181;29;20188;-86
2021/01/17 05:59:51;;;;;;;31.97;18.03;;;0.10;99.90;;;;;;4959303;29;20268;-84
2021/01/17 06:02:17;;;;;;;28.17;17.20;;;0.10;99.90;;;;;;4958731;29;20191;-83
2021/01/17 06:04:45;;;;;;;32.07;18.63;;;0.00;99.90;;;;;;4943500;29;20331;-85
2021/01/17 06:07:11;;;;;;;31.13;18.77;;;0.10;99.90;;;;;;4943234;28;20181;-84
2021/01/17 06:09:37;;;;;;;35.97;19.60;;;0.10;99.90;;;;;;4958440;29;20251;-84
2021/01/17 06:12:02;;;;;;;32.83;17.87;;;0.10;99.90;;;;;;4958880;29;20622;-83
2021/01/17 06:14:28;;;;;;;35.20;19.37;;;0.10;99.90;;;;;;4955143;29;20187;-84
2021/01/17 06:16:58;;;;;;;34.37;20.23;;;0.20;99.90;;;;;;4958619;29;20273;-85
2021/01/17 06:19:31;;;;;;;32.43;18.27;;;0.10;99.90;;;;;;4958551;29;20236;-84
2021/01/17 06:21:59;;;;;;;34.70;19.10;;;0.10;99.90;;;;;;4943018;28;20191;-84
2021/01/17 06:24:37;;;;;;;38.27;20.00;;;0.10;99.90;;;;;;4963173;29;20175;-83
2021/01/17 06:27:03;;;;;;;34.93;19.30;;;0.20;99.90;;;;;;4961934;29;20168;-84
2021/01/17 06:29:40;;;;;;;37.30;19.43;;;0.20;99.90;;;;;;4961928;29;20277;-84
2021/01/17 06:32:17;;;;;;;37.90;20.00;;;0.20;99.90;;;;;;4978704;28;20204;-83
2021/01/17 06:34:46;;;;;;;33.30;19.10;;;0.10;99.90;;;;;;4961677;29;20197;-82
2021/01/17 06:37:13;;;;;;;35.27;18.87;;;0.20;99.90;;;;;;4960677;29;20208;-83
2021/01/17 06:39:52;;;;;;;41.93;20.60;;;0.10;99.90;;;;;;4961219;29;20200;-84
2021/01/17 06:42:19;;;;;;;36.43;19.27;;;0.10;99.90;;;;;;4960809;29;20177;-83
2021/01/17 06:44:45;;;;;;;37.80;20.50;;;0.20;99.90;;;;;;4962062;29;20172;-83
2021/01/17 06:47:21;;;;;;;38.20;20.63;;;0.20;99.90;;;;;;4948960;28;20185;-81
2021/01/17 06:49:48;;;;;;;38.90;19.30;;;0.10;99.90;;;;;;4964789;28;20216;-86
2021/01/17 06:52:14;;;;;;;36.67;19.03;;;0.10;99.90;;;;;;4977582;28;20199;-84
2021/01/17 06:54:47;;;;;;;42.90;20.73;;;0.10;99.90;;;;;;4978957;28;20161;-84
2021/01/17 06:57:13;;;;;;;36.77;19.50;;;0.10;99.90;;;;;;4975926;29;20172;-84
2021/01/17 06:59:43;;;;;;;42.53;20.70;;;0.00;99.90;;;;;;4958958;29;20223;-83
2021/01/17 07:02:17;;;;;;;39.30;20.70;;;0.10;99.90;;;;;;4975223;29;20164;-83
2021/01/17 07:04:52;;;;;;;37.87;20.17;;;0.10;99.90;;;;;;4975296;28;20187;-82
2021/01/17 07:07:55;;;;;;;36.93;19.90;;;0.20;99.90;;;;;;4973679;29;20217;-83
2021/01/17 07:10:22;;;;;;;34.87;18.80;;;0.20;99.90;;;;;;4977909;29;20668;-82
2021/01/17 07:12:57;;;;;;;36.50;18.80;;;0.20;99.90;;;;;;4960091;29;20192;-83
2021/01/17 07:15:25;;;;;;;40.13;20.53;;;0.10;99.90;;;;;;4959030;29;20271;-82
2021/01/17 07:18:02;;;;;;;34.03;18.87;;;0.30;99.90;;;;;;4957794;29;20176;-84
2021/01/17 07:20:28;;;;;;;36.47;19.37;;;0.20;99.90;;;;;;4974534;29;20209;-83
2021/01/17 07:22:56;;;;;;;36.70;20.23;;;0.20;99.90;;;;;;4958833;29;20189;-84
2021/01/17 07:25:22;;;;;;;36.83;19.03;;;0.20;99.90;;;;;;4942333;29;20178;-84
2021/01/17 07:28:09;;;;;;;38.07;20.27;;;0.20;99.90;;;;;;4958880;29;20189;-83
2021/01/17 07:30:51;;;;;;;34.20;19.00;;;0.30;99.90;;;;;;4976264;28;20171;-83
2021/01/17 07:33:27;;;;;;;35.20;19.03;;;0.20;99.90;;;;;;4966694;28;20173;-80
2021/01/17 07:35:59;;;;;;;35.50;19.23;;;0.20;99.90;;;;;;4944075;29;20222;-81
2021/01/17 07:38:29;;;;;;;37.73;19.60;;;0.40;99.90;;;;;;4942418;29;20583;-75
2021/01/17 07:41:12;;;;;;;33.17;18.77;;;0.30;99.90;;;;;;4940327;29;20605;-78
2021/01/17 07:43:42;;;;;;;34.87;19.93;;;0.20;99.90;;;;;;4958238;28;20256;-77
2021/01/17 07:46:09;;;;;;;36.47;19.57;;;0.40;99.90;;;;;;4923208;29;20207;-77
2021/01/17 07:48:35;;;;;;;32.93;18.73;;;0.40;99.90;;;;;;4942165;29;20204;-78
2021/01/17 07:51:02;;;;;;;37.53;20.17;;;0.30;99.90;;;;;;4940798;29;20273;-77
2021/01/17 07:53:36;;;;;;;33.60;19.30;;;0.30;99.90;;;;;;4940262;29;20192;-75
2021/01/17 07:56:13;;;;;;;36.83;20.30;;;0.30;99.90;;;;;;4956354;28;20271;-76
2021/01/17 07:58:43;;;;;;;34.43;18.47;;;0.30;99.90;;;;;;4939085;29;20285;-75
2021/01/17 08:01:31;;;;;;;35.20;20.17;;;0.20;99.90;;;;;;4955034;29;20221;-74
2021/01/17 08:04:13;;;;;;;35.03;19.83;;;0.20;99.90;;;;;;4964250;28;20181;-84
2021/01/17 08:06:58;;;;;;;36.03;19.63;;;0.30;99.90;;;;;;4976599;28;20210;-83
2021/01/17 08:09:43;;;;;;;37.97;19.27;;;0.30;99.90;;;;;;4938595;29;20351;-80
2021/01/17 08:12:57;;;;;;;38.37;19.07;;;0.30;99.90;;;;;;4959059;28;20724;-86
2021/01/17 08:15:28;;;;;;;35.57;19.40;;;0.30;99.90;;;;;;4960042;28;20200;-78
2021/01/17 08:17:53;;;;;;;36.23;18.77;;;0.30;99.90;;;;;;4924650;29;20172;-78
2021/01/17 08:20:32;;;;;;;36.27;19.77;;;0.30;99.90;;;;;;4961496;29;20847;-80
2021/01/17 08:23:05;;;;;;;38.00;19.17;;;0.30;99.90;;;;;;4955305;29;20177;-77
2021/01/17 08:26:03;;;;;;;36.30;19.80;;;0.40;99.90;;;;;;4943555;29;20167;-77
2021/01/17 08:28:41;;;;;;;37.03;20.30;;;0.40;99.90;;;;;;4933608;29;20617;-83
2021/01/17 08:31:38;;;;;;;34.03;19.80;;;0.30;99.90;;;;;;4966066;28;20192;-81
2021/01/17 08:34:11;;;;;;;36.03;19.40;;;0.50;99.90;;;;;;4950845;29;20209;-80
2021/01/17 08:36:37;;;;;;;37.53;19.77;;;0.40;99.90;;;;;;4941718;29;20184;-79
2021/01/17 08:39:41;;;;;;;34.53;19.90;;;0.40;99.90;;;;;;4940078;28;20212;-88
2021/01/17 08:42:26;;;;;;;35.77;18.97;;;0.50;99.90;;;;;;4949800;28;20181;-80
2021/01/17 08:45:48;;;;;;;37.10;20.37;;;0.40;99.90;;;;;;4948142;29;20212;-80
2021/01/17 08:48:16;;;;;;;33.47;19.00;;;0.50;99.90;;;;;;4949656;28;20179;-77
2021/01/17 08:54:58;;;;;;;34.17;19.70;;;0.40;99.90;;;;;;4958185;28;20188;-88
2021/01/17 08:58:21;;;;;;;33.60;19.60;;;0.40;99.90;;;;;;4958740;28;20173;-79
2021/01/17 09:01:40;;;;;;;39.57;19.97;;;0.60;99.90;;;;;;4953809;28;20209;-88
2021/01/17 09:04:28;;;;;;;37.80;20.23;;;0.50;99.90;;;;;;4958512;28;20245;-88
2021/01/17 09:08:05;;;;;;;39.93;20.23;;;0.60;99.90;;;;;;4961096;28;20249;-84
2021/01/17 09:10:51;;;;;;;37.40;19.33;;;0.60;99.90;;;;;;4956377;28;20204;-84
2021/01/17 09:13:28;;;;;;;36.77;20.13;;;0.60;99.90;;;;;;4957696;28;20168;-81
2021/01/17 09:16:18;;;;;;;35.10;20.17;;;0.60;99.90;;;;;;4965919;28;20220;-84
2021/01/17 09:18:44;;;;;;;39.03;21.17;;;0.60;99.90;;;;;;4948286;29;20211;-81
2021/01/17 09:21:09;;;;;;;37.97;20.37;;;0.60;99.90;;;;;;4945020;29;20208;-83
2021/01/17 09:23:37;;;;;;;36.80;20.33;;;0.60;99.90;;;;;;4928200;29;20189;-80
2021/01/17 09:26:02;;;;;;;36.30;20.60;;;0.60;99.90;;;;;;4924485;29;20221;-80
2021/01/17 09:28:28;;;;;;;40.37;21.77;;;0.60;99.90;;;;;;4942290;29;20201;-79
2021/01/17 09:30:55;;;;;;;37.23;20.47;;;0.70;99.90;;;;;;4924076;29;20191;-81
2021/01/17 09:33:28;;;;;;;37.93;20.60;;;0.70;99.90;;;;;;4923241;29;20201;-83
2021/01/17 09:36:00;;;;;;;37.80;20.17;;;0.70;99.90;;;;;;4954371;29;20176;-85
2021/01/17 09:38:26;;;;;;;35.77;19.50;;;0.80;99.90;;;;;;4922356;29;20292;-82
2021/01/17 09:40:53;;;;;;;36.53;20.07;;;0.70;99.90;;;;;;4924852;29;20232;-81
2021/01/17 09:43:19;;;;;;;34.60;19.40;;;0.80;99.90;;;;;;4938073;29;20170;-80
2021/01/17 09:45:51;;;;;;;37.33;21.23;;;0.70;99.90;;;;;;4937672;29;20182;-81
2021/01/17 09:49:10;;;;;;;36.93;20.43;;;0.80;99.90;;;;;;4958233;29;20638;-88
2021/01/17 09:51:46;;;;;;;37.17;19.73;;;0.90;99.90;;;;;;4942729;29;20284;-85
2021/01/17 09:54:12;;;;;;;38.10;20.20;;;0.90;99.90;;;;;;4958064;29;20265;-84
2021/01/17 09:56:42;;;;;;;38.33;20.97;;;0.90;99.90;;;;;;4923407;29;20189;-82
2021/01/17 09:59:18;;;;;;;35.37;20.13;;;0.80;99.90;;;;;;4938792;29;20207;-83
2021/01/17 10:01:44;;;;;;;36.73;19.97;;;0.90;99.90;;;;;;4955457;29;20177;-76
2021/01/17 10:04:26;;;;;;;34.07;19.80;;;0.90;99.90;;;;;;4960784;29;20184;-86
2021/01/17 10:06:52;;;;;;;31.73;17.10;;;0.90;99.90;;;;;;4958414;29;20204;-81
2021/01/17 10:09:18;;;;;;;31.90;17.20;;;1.00;99.90;;;;;;4957626;29;20204;-81
2021/01/17 10:11:44;;;;;;;36.77;19.07;;;1.00;99.90;;;;;;4958068;29;20178;-83
2021/01/17 10:14:11;;;;;;;33.73;18.73;;;1.00;99.90;;;;;;4957923;29;20180;-81
2021/01/17 10:16:37;;;;;;;36.93;20.00;;;1.00;99.90;;;;;;4941162;29;20259;-81
2021/01/17 10:19:06;;;;;;;36.30;19.90;;;1.00;99.90;;;;;;4957569;29;20193;-83
2021/01/17 10:21:35;;;;;;;34.10;18.87;;;1.00;99.90;;;;;;4941279;29;20323;-80
2021/01/17 10:24:00;;;;;;;36.77;19.03;;;1.00;99.90;;;;;;4939905;28;20719;-85
2021/01/17 10:26:26;;;;;;;36.43;20.23;;;1.00;99.90;;;;;;4968992;28;20227;-82
2021/01/17 10:28:52;;;;;;;37.10;20.70;;;1.10;99.90;;;;;;4941262;29;20299;-81
2021/01/17 10:31:20;;;;;;;34.33;19.13;;;1.10;99.90;;;;;;4940398;29;20648;-82
2021/01/17 10:33:46;;;;;;;35.43;19.93;;;1.00;99.90;;;;;;4925230;29;20649;-81
2021/01/17 10:36:12;;;;;;;34.80;19.40;;;1.00;99.90;;;;;;4923206;29;20198;-81
2021/01/17 10:38:37;;;;;;;34.20;19.30;;;1.10;99.90;;;;;;4926245;29;20256;-83
2021/01/17 10:41:03;;;;;;;38.47;19.73;;;1.10;99.90;;;;;;4942062;29;20235;-81
2021/01/17 10:43:30;;;;;;;39.17;20.97;;;1.10;99.90;;;;;;4941136;29;20180;-82
2021/01/17 10:46:10;;;;;;;37.63;22.10;;;1.10;99.90;;;;;;4956120;29;20182;-79
2021/01/17 10:48:42;;;;;;;38.30;20.23;;;1.10;99.90;;;;;;4946448;29;20211;-79
2021/01/17 10:51:08;;;;;;;36.60;20.07;;;1.10;99.90;;;;;;4931106;29;20180;-78
2021/01/17 10:53:46;;;;;;;35.87;20.23;;;1.10;99.90;;;;;;4928778;29;20172;-78
2021/01/17 10:56:15;;;;;;;39.13;21.67;;;1.20;99.90;;;;;;4932947;29;20197;-78
2021/01/17 10:58:41;;;;;;;39.67;21.13;;;1.10;99.90;;;;;;4928701;28;20205;-81
2021/01/17 11:02:03;;;;;;;39.93;21.70;;;1.10;99.90;;;;;;4936429;28;20262;-84
2021/01/17 11:05:40;;;;;;;38.33;19.73;;;1.10;99.90;;;;;;4978111;28;20563;-84
2021/01/17 11:08:05;;;;;;;37.17;20.23;;;1.10;99.90;;;;;;4957310;28;20236;-85
2021/01/17 11:10:31;;;;;;;37.63;21.17;;;1.10;99.90;;;;;;4933929;29;20196;-85
2021/01/17 11:12:57;;;;;;;35.37;19.17;;;1.10;99.90;;;;;;4960542;29;20236;-85
2021/01/17 11:15:23;;;;;;;36.77;21.20;;;1.20;99.90;;;;;;4964277;28;20181;-87
2021/01/17 11:17:56;;;;;;;42.73;22.13;;;1.20;99.90;;;;;;4945994;29;20213;-86
2021/01/17 11:20:28;;;;;;;39.03;20.67;;;1.20;99.90;;;;;;4973033;28;20220;-84
2021/01/17 11:23:05;;;;;;;39.33;21.50;;;1.30;99.90;;;;;;4951560;29;20186;-85
2021/01/17 11:25:31;;;;;;;41.30;21.77;;;1.30;99.90;;;;;;4938516;29;20184;-81
2021/01/17 11:27:58;;;;;;;40.10;21.70;;;1.30;99.90;;;;;;4945581;29;20204;-79
2021/01/17 11:30:28;;;;;;;39.33;21.07;;;1.40;99.90;;;;;;4963383;29;20184;-79
2021/01/17 11:33:10;;;;;;;41.57;22.03;;;1.30;99.90;;;;;;4965087;29;20649;-79
2021/01/17 11:35:37;;;;;;;38.00;21.43;;;;;;;;;;4947455;29;20196;-80
2021/01/17 11:38:04;;;;;;;42.90;22.23;;;1.30;99.90;;;;;;4964419;29;20244;-78
2021/01/17 11:40:29;;;;;;;41.17;22.73;;;1.40;99.90;;;;;;4946520;29;20365;-79
2021/01/17 11:43:08;;;;;;;39.87;21.97;;;1.40;99.90;;;;;;4926413;29;20286;-79
2021/01/17 11:45:38;;;;;;;40.00;22.03;;;1.40;99.90;;;;;;4943741;29;20561;-84
2021/01/17 11:48:04;;;;;;;44.27;22.80;;;1.40;99.90;;;;;;4932240;29;20216;-78
2021/01/17 11:50:29;;;;;;;41.03;21.20;;;1.40;99.90;;;;;;4942005;29;20192;-80
2021/01/17 11:52:59;;;;;;;42.83;22.30;;;1.40;99.90;;;;;;4956819;29;20186;-80
2021/01/17 11:55:25;;;;;;;45.37;23.23;;;1.50;99.90;;;;;;4943462;29;20182;-79
2021/01/17 11:58:17;;;;;;;38.07;21.83;;;1.50;99.90;;;;;;4954716;29;20216;-85
2021/01/17 12:00:50;;;;;;;42.40;21.43;;;1.50;99.90;;;;;;4937562;29;20229;-79
2021/01/17 12:03:22;;;;;;;44.63;22.07;;;1.50;99.90;;;;;;4949342;29;20185;-78
2021/01/17 12:06:02;;;;;;;42.20;21.67;;;1.50;99.90;;;;;;4961709;28;20184;-81
2021/01/17 12:09:06;;;;;;;44.57;21.87;;;1.50;99.90;;;;;;4958904;28;20197;-78
2021/01/17 12:11:48;;;;;;;46.10;21.53;;;1.40;99.90;;;;;;4956430;28;20174;-81
2021/01/17 12:14:24;;;;;;;49.63;23.87;;;1.50;99.90;;;;;;4932588;28;20228;-80
2021/01/17 12:16:57;;;;;;;48.37;24.17;;;1.50;99.90;;;;;;4955387;28;20185;-81
2021/01/17 12:19:23;;;;;;;47.80;24.70;;;1.60;99.90;;;;;;4923313;29;20198;-80
2021/01/17 12:21:52;;;;;;;49.70;23.43;;;1.50;99.90;;;;;;4913757;28;20653;-80
2021/01/17 12:24:18;;;;;;;52.50;25.53;;;1.50;99.90;;;;;;4975425;28;20192;-79
2021/01/17 12:26:44;;;;;;;53.30;25.87;;;1.60;99.90;;;;;;4937573;28;20190;-75
2021/01/17 12:29:10;;;;;;;58.70;27.37;;;1.70;99.90;;;;;;4935713;29;20226;-79
2021/01/17 12:31:36;;;;;;;51.93;25.47;;;1.70;99.90;;;;;;4920338;29;20179;-79
2021/01/17 12:34:01;;;;;;;51.00;24.83;;;1.70;99.90;;;;;;4904455;29;20208;-83
2021/01/17 12:36:28;;;;;;;59.63;26.27;;;1.70;99.90;;;;;;4904019;29;20192;-80
2021/01/17 12:38:54;;;;;;;58.23;27.13;;;1.70;99.90;;;;;;4905677;29;20198;-79
2021/01/17 12:41:21;;;;;;;59.23;25.97;;;1.60;99.90;;;;;;4907393;29;20596;-78
2021/01/17 12:43:47;;;;;;;66.40;29.27;;;1.70;99.90;;;;;;4957271;29;20180;-78
2021/01/17 12:46:13;;;;;;;71.87;32.77;;;1.60;99.90;;;;;;4957500;29;20663;-77
2021/01/17 12:48:39;;;;;;;71.20;31.80;;;1.70;99.90;;;;;;4957932;29;20210;-80
2021/01/17 12:51:05;;;;;;;71.00;31.13;;;1.70;99.90;;;;;;4960232;29;20188;-80
2021/01/17 12:53:31;;;;;;;76.13;32.07;;;1.70;99.90;;;;;;4963434;29;20199;-80
2021/01/17 12:55:56;;;;;;;76.93;32.67;;;1.60;99.90;;;;;;4962186;29;20193;-80
2021/01/17 12:58:22;;;;;;;78.90;33.67;;;1.60;99.90;;;;;;4960104;28;20336;-78
2021/01/17 13:00:48;;;;;;;75.00;31.30;;;1.60;99.90;;;;;;4954987;28;20216;-83
2021/01/17 13:03:14;;;;;;;75.13;32.07;;;1.60;99.90;;;;;;4956775;28;20562;-81
2021/01/17 13:05:39;;;;;;;70.00;30.43;;;1.60;99.90;;;;;;4940601;29;20185;-80
2021/01/17 13:08:05;;;;;;;78.90;30.40;;;1.60;99.90;;;;;;4956674;29;20644;-80